createdAt,value
2022-12-19T15:20:43.922Z,12.31
2022-12-19T15:21:44.819Z,12.31
2022-12-19T15:23:00.413Z,12.40
2022-12-19T15:24:01.407Z,12.41
2022-12-19T15:25:01.372Z,12.44
2022-12-19T15:32:20.441Z,11.30
2022-12-19T15:33:21.411Z,10.46
2022-12-19T15:34:34.893Z,9.68
2022-12-19T15:35:24.843Z,8.89
2022-12-19T15:36:24.831Z,8.07
2022-12-19T15:37:24.832Z,7.47
2022-12-19T15:38:24.828Z,7.00
2022-12-19T15:39:24.812Z,6.60
2022-12-19T15:40:24.814Z,6.21
2022-12-19T15:41:24.838Z,5.95
2022-12-19T15:42:25.072Z,5.74
2022-12-19T15:44:02.081Z,5.56
2022-12-19T15:44:24.833Z,5.40
2022-12-19T15:45:24.798Z,5.29
2022-12-19T15:46:24.872Z,5.23
2022-12-19T15:47:24.790Z,5.15
2022-12-19T15:48:24.792Z,5.08
2022-12-19T15:49:24.754Z,5.01
2022-12-19T15:50:24.781Z,4.97
2022-12-19T15:51:24.742Z,4.93
2022-12-19T15:52:24.751Z,4.91
2022-12-19T15:53:38.037Z,4.84
2022-12-19T15:55:24.715Z,4.69
2022-12-19T15:56:24.706Z,4.64
2022-12-19T15:57:24.681Z,4.56
2022-12-19T15:58:24.686Z,4.53
2022-12-19T15:59:24.679Z,4.51
2022-12-19T16:00:24.777Z,4.46
2022-12-19T16:01:24.753Z,4.38
2022-12-19T16:02:24.786Z,4.34
2022-12-19T16:03:26.662Z,4.32
2022-12-19T16:04:24.797Z,4.29
2022-12-19T16:05:24.703Z,4.25
2022-12-19T16:06:24.586Z,4.21
2022-12-19T16:07:24.619Z,4.18
2022-12-19T16:08:24.593Z,4.14
2022-12-19T16:09:24.650Z,4.08
2022-12-19T16:10:24.545Z,4.02
2022-12-19T16:11:24.576Z,3.98
2022-12-19T16:12:24.534Z,3.93
2022-12-19T16:13:24.631Z,3.89
2022-12-19T16:14:24.502Z,3.82
2022-12-19T16:15:24.502Z,3.78
2022-12-19T16:16:25.160Z,3.74
2022-12-19T16:17:24.476Z,3.67
2022-12-19T16:18:24.494Z,3.62
2022-12-19T16:19:24.509Z,3.70
2022-12-19T16:20:24.452Z,3.67
2022-12-19T16:21:31.257Z,3.67
2022-12-19T16:22:24.449Z,3.62
2022-12-19T16:23:24.431Z,3.57
2022-12-19T16:24:24.424Z,3.53
2022-12-19T16:25:24.397Z,3.50
2022-12-19T16:26:24.381Z,3.50
2022-12-19T16:27:24.372Z,3.50
2022-12-19T16:28:24.470Z,3.52
2022-12-19T16:29:24.363Z,3.50
2022-12-19T16:30:24.358Z,3.46
2022-12-19T16:31:24.363Z,3.52
2022-12-19T16:32:24.765Z,3.53
2022-12-19T16:33:24.354Z,3.56
2022-12-19T16:34:24.301Z,3.60
2022-12-19T16:35:54.873Z,3.64
2022-12-19T16:36:24.303Z,3.67
2022-12-19T16:37:30.233Z,3.67
2022-12-19T16:38:24.288Z,3.67
2022-12-19T16:39:24.251Z,3.67
2022-12-19T16:40:24.247Z,3.64
2022-12-19T16:41:24.234Z,3.68
2022-12-19T16:42:24.236Z,3.71
2022-12-19T16:43:24.250Z,3.72
2022-12-19T16:44:24.217Z,3.68
2022-12-19T16:45:24.191Z,3.68
2022-12-19T16:46:24.208Z,3.67
2022-12-19T16:47:24.253Z,3.63
2022-12-19T16:48:24.162Z,3.60
2022-12-19T16:49:24.175Z,3.62
2022-12-19T16:50:24.193Z,3.78
2022-12-19T16:51:24.311Z,3.89
2022-12-19T16:52:24.148Z,3.92
2022-12-19T16:53:24.115Z,3.99
2022-12-19T16:54:24.146Z,4.04
2022-12-19T16:55:24.193Z,3.99
2022-12-19T16:56:24.077Z,3.93
2022-12-19T16:57:24.169Z,3.92
2022-12-19T16:58:24.082Z,3.82
2022-12-19T16:59:24.120Z,3.78
2022-12-19T17:00:24.034Z,3.68
2022-12-19T17:01:24.225Z,3.59
2022-12-19T17:02:24.188Z,3.53
2022-12-19T17:03:24.114Z,3.49
2022-12-19T17:04:24.021Z,3.44
2022-12-19T17:05:24.044Z,3.44
2022-12-19T17:06:24.074Z,3.41
2022-12-19T17:07:24.008Z,3.45
2022-12-19T17:08:24.034Z,3.46
2022-12-19T17:09:24.087Z,3.46
2022-12-19T17:10:26.338Z,3.44
2022-12-19T17:11:23.929Z,3.45
2022-12-19T17:12:23.955Z,3.41
2022-12-19T17:13:23.944Z,3.41
2022-12-19T17:14:23.925Z,3.37
2022-12-19T17:15:23.906Z,3.39
2022-12-19T17:16:23.935Z,3.41
2022-12-19T17:17:23.867Z,3.39
2022-12-19T17:18:23.863Z,3.42
2022-12-19T17:19:23.881Z,3.44
2022-12-19T17:20:23.856Z,3.46
2022-12-19T17:21:23.831Z,3.50
2022-12-19T17:22:23.828Z,3.52
2022-12-19T17:23:23.823Z,3.57
2022-12-19T17:24:23.818Z,3.60
2022-12-19T17:25:23.789Z,3.67
2022-12-19T17:26:23.792Z,3.75
2022-12-19T17:27:23.775Z,3.84
2022-12-19T17:28:23.787Z,3.88
2022-12-19T17:29:23.774Z,3.90
2022-12-19T17:30:23.866Z,3.90
2022-12-19T17:31:23.968Z,3.89
2022-12-19T17:32:24.714Z,3.93
2022-12-19T17:33:23.717Z,3.98
2022-12-19T17:34:23.734Z,4.00
2022-12-19T17:35:27.737Z,4.02
2022-12-19T17:36:26.844Z,4.02
2022-12-19T17:37:23.675Z,4.11
2022-12-19T17:38:23.669Z,4.26
2022-12-19T17:39:23.670Z,4.36
2022-12-19T17:40:23.661Z,4.42
2022-12-19T17:41:23.628Z,4.47
2022-12-19T17:42:23.656Z,4.50
2022-12-19T17:43:23.609Z,4.51
2022-12-19T17:44:23.660Z,4.51
2022-12-19T17:45:23.644Z,4.57
2022-12-19T17:46:23.752Z,4.62
2022-12-19T17:47:23.597Z,4.62
2022-12-19T17:48:23.557Z,4.59
2022-12-19T17:49:23.593Z,4.56
2022-12-19T17:50:25.451Z,4.59
2022-12-19T17:51:23.532Z,4.59
2022-12-19T17:52:23.518Z,4.54
2022-12-19T17:53:23.515Z,4.56
2022-12-19T17:54:23.526Z,4.72
2022-12-19T17:55:23.495Z,4.84
2022-12-19T17:56:23.511Z,4.87
2022-12-19T17:57:23.468Z,4.87
2022-12-19T17:58:23.475Z,4.90
2022-12-19T17:59:23.702Z,4.93
2022-12-19T18:00:29.907Z,4.91
2022-12-19T18:01:23.946Z,4.91
2022-12-19T18:02:23.602Z,4.93
2022-12-19T18:03:23.651Z,4.94
2022-12-19T18:04:23.507Z,4.90
2022-12-19T18:05:23.411Z,4.99
2022-12-19T18:06:23.410Z,5.09
2022-12-19T18:07:23.373Z,5.12
2022-12-19T18:08:23.372Z,5.09
2022-12-19T18:09:23.362Z,5.15
2022-12-19T18:10:23.349Z,5.17
2022-12-19T18:11:23.351Z,5.20
2022-12-19T18:12:23.316Z,5.19
2022-12-19T18:13:23.317Z,5.17
2022-12-19T18:14:23.332Z,5.17
2022-12-19T18:15:23.289Z,5.09
2022-12-19T18:16:23.309Z,5.05
2022-12-19T18:17:23.266Z,5.04
2022-12-19T18:18:23.256Z,5.02
2022-12-19T18:19:23.270Z,4.99
2022-12-19T18:20:29.391Z,4.94
2022-12-19T18:21:23.237Z,4.93
2022-12-19T18:22:23.216Z,4.88
2022-12-19T18:23:23.219Z,4.87
2022-12-19T18:24:23.208Z,4.87
2022-12-19T18:25:23.200Z,4.86
2022-12-19T18:26:23.173Z,4.83
2022-12-19T18:27:23.180Z,4.80
2022-12-19T18:28:23.158Z,4.79
2022-12-19T18:29:23.171Z,4.74
2022-12-19T18:30:24.166Z,4.71
2022-12-19T18:31:23.280Z,4.72
2022-12-19T18:32:23.112Z,4.65
2022-12-19T18:33:23.104Z,4.64
2022-12-19T18:34:23.114Z,4.61
2022-12-19T18:35:23.100Z,4.57
2022-12-19T18:36:23.108Z,4.56
2022-12-19T18:37:23.072Z,4.57
2022-12-19T18:38:23.051Z,4.59
2022-12-19T18:39:23.201Z,4.57
2022-12-19T18:40:29.282Z,4.56
2022-12-19T18:41:23.039Z,4.61
2022-12-19T18:42:23.018Z,4.59
2022-12-19T18:43:23.007Z,4.56
2022-12-19T18:44:23.180Z,4.54
2022-12-19T18:45:22.995Z,4.57
2022-12-19T18:46:23.008Z,4.64
2022-12-19T18:47:22.979Z,4.68
2022-12-19T18:48:22.948Z,4.71
2022-12-19T18:49:23.059Z,4.71
2022-12-19T18:50:22.927Z,4.72
2022-12-19T18:51:22.938Z,4.74
2022-12-19T18:52:22.919Z,4.72
2022-12-19T18:53:22.949Z,4.72
2022-12-19T18:54:22.943Z,4.71
2022-12-19T18:55:22.893Z,4.68
2022-12-19T18:56:22.868Z,4.64
2022-12-19T18:57:22.895Z,4.62
2022-12-19T18:58:22.910Z,4.59
2022-12-19T18:59:22.868Z,4.59
2022-12-19T19:00:22.836Z,4.61
2022-12-19T19:01:22.954Z,4.61
2022-12-19T19:02:22.985Z,4.64
2022-12-19T19:03:23.090Z,4.68
2022-12-19T19:04:22.882Z,4.72
2022-12-19T19:05:22.830Z,4.83
2022-12-19T19:06:22.929Z,4.83
2022-12-19T19:07:22.761Z,4.88
2022-12-19T19:08:22.756Z,4.94
2022-12-19T19:09:22.964Z,4.99
2022-12-19T19:10:22.732Z,5.04
2022-12-19T19:11:22.727Z,5.06
2022-12-19T19:12:22.713Z,5.14
2022-12-19T19:13:22.761Z,5.14
2022-12-19T19:14:22.736Z,5.12
2022-12-19T19:15:22.691Z,5.11
2022-12-19T19:16:22.719Z,5.17
2022-12-19T19:17:22.787Z,5.17
2022-12-19T19:18:22.657Z,5.12
2022-12-19T19:19:22.655Z,5.11
2022-12-19T19:20:22.659Z,5.14
2022-12-19T19:21:22.669Z,5.17
2022-12-19T19:22:22.675Z,5.19
2022-12-19T19:23:22.617Z,5.23
2022-12-19T19:24:22.706Z,5.26
2022-12-19T19:25:22.588Z,5.29
2022-12-19T19:26:22.602Z,5.26
2022-12-19T19:27:22.572Z,5.24
2022-12-19T19:28:22.544Z,5.19
2022-12-19T19:29:22.553Z,5.15
2022-12-19T19:30:22.557Z,5.12
2022-12-19T19:31:22.627Z,5.08
2022-12-19T19:32:22.585Z,5.06
2022-12-19T19:33:22.506Z,5.09
2022-12-19T19:34:22.533Z,5.08
2022-12-19T19:35:22.539Z,5.08
2022-12-19T19:36:22.469Z,5.11
2022-12-19T19:37:22.455Z,5.12
2022-12-19T19:38:22.457Z,5.15
2022-12-19T19:39:22.568Z,5.19
2022-12-19T19:40:22.426Z,5.14
2022-12-19T19:41:22.415Z,5.12
2022-12-19T19:42:22.402Z,5.09
2022-12-19T19:43:22.396Z,5.12
2022-12-19T19:44:22.562Z,5.08
2022-12-19T19:45:22.397Z,5.06
2022-12-19T19:46:22.481Z,5.06
2022-12-19T19:47:22.383Z,5.09
2022-12-19T19:48:22.346Z,5.11
2022-12-19T19:49:22.337Z,5.14
2022-12-19T19:50:22.383Z,5.15
2022-12-19T19:51:22.348Z,5.22
2022-12-19T19:52:22.387Z,5.26
2022-12-19T19:53:22.415Z,5.24
2022-12-19T19:54:22.288Z,5.29
2022-12-19T19:55:22.427Z,5.30
2022-12-19T19:56:22.288Z,5.40
2022-12-19T19:57:22.251Z,5.41
2022-12-19T19:58:22.245Z,5.44
2022-12-19T19:59:22.234Z,5.42
2022-12-19T20:00:22.231Z,5.41
2022-12-19T20:01:22.405Z,5.45
2022-12-19T20:02:22.568Z,5.47
2022-12-19T20:03:23.339Z,5.47
2022-12-19T20:04:22.289Z,5.51
2022-12-19T20:05:22.181Z,5.56
2022-12-19T20:06:22.174Z,5.52
2022-12-19T20:07:22.154Z,5.60
2022-12-19T20:08:22.132Z,5.58
2022-12-19T20:09:22.150Z,5.65
2022-12-19T20:10:22.132Z,5.63
2022-12-19T20:11:22.122Z,5.63
2022-12-19T20:12:22.101Z,5.59
2022-12-19T20:13:22.097Z,5.56
2022-12-19T20:14:22.072Z,5.55
2022-12-19T20:15:22.111Z,5.51
2022-12-19T20:16:22.165Z,5.48
2022-12-19T20:17:22.090Z,5.51
2022-12-19T20:18:22.030Z,5.49
2022-12-19T20:19:22.070Z,5.55
2022-12-19T20:20:22.049Z,5.58
2022-12-19T20:21:22.008Z,5.56
2022-12-19T20:22:22.016Z,5.51
2022-12-19T20:23:22.058Z,5.47
2022-12-19T20:24:21.983Z,5.48
2022-12-19T20:25:21.994Z,5.44
2022-12-19T20:26:22.095Z,5.42
2022-12-19T20:27:21.965Z,5.44
2022-12-19T20:28:21.947Z,5.45
2022-12-19T20:29:21.936Z,5.47
2022-12-19T20:30:21.939Z,5.42
2022-12-19T20:31:22.029Z,5.41
2022-12-19T20:32:21.935Z,5.40
2022-12-19T20:33:21.890Z,5.40
2022-12-19T20:34:21.880Z,5.41
2022-12-19T20:35:21.909Z,5.47
2022-12-19T20:36:21.871Z,5.49
2022-12-19T20:37:21.872Z,5.49
2022-12-19T20:38:22.425Z,5.49
2022-12-19T20:39:21.838Z,5.52
2022-12-19T20:40:21.851Z,5.55
2022-12-19T20:41:21.805Z,5.52
2022-12-19T20:42:21.799Z,5.56
2022-12-19T20:43:21.801Z,5.58
2022-12-19T20:44:24.661Z,5.52
2022-12-19T20:45:21.837Z,5.51
2022-12-19T20:46:21.824Z,5.51
2022-12-19T20:47:21.800Z,5.55
2022-12-19T20:48:21.735Z,5.60
2022-12-19T20:49:21.810Z,5.63
2022-12-19T20:50:21.728Z,5.66
2022-12-19T20:51:21.725Z,5.69
2022-12-19T20:52:21.697Z,5.70
2022-12-19T20:53:21.688Z,5.73
2022-12-19T20:54:21.738Z,5.70
2022-12-19T20:55:21.687Z,5.69
2022-12-19T20:56:21.690Z,5.67
2022-12-19T20:57:21.662Z,5.73
2022-12-19T20:58:21.643Z,5.73
2022-12-19T20:59:21.636Z,5.73
2022-12-19T21:00:21.630Z,5.77
2022-12-19T21:01:21.781Z,5.75
2022-12-19T21:02:21.911Z,5.81
2022-12-19T21:03:30.022Z,5.80
2022-12-19T21:04:21.802Z,5.75
2022-12-19T21:05:21.756Z,5.73
2022-12-19T21:06:21.569Z,5.74
2022-12-19T21:07:21.608Z,5.70
2022-12-19T21:08:21.545Z,5.65
2022-12-19T21:09:21.548Z,5.59
2022-12-19T21:10:21.542Z,5.58
2022-12-19T21:11:21.519Z,5.58
2022-12-19T21:12:21.496Z,5.59
2022-12-19T21:13:21.497Z,5.58
2022-12-19T21:14:21.496Z,5.59
2022-12-19T21:15:21.507Z,5.58
2022-12-19T21:16:21.604Z,5.59
2022-12-19T21:17:21.451Z,5.66
2022-12-19T21:18:21.428Z,5.66
2022-12-19T21:19:21.482Z,5.69
2022-12-19T21:20:21.509Z,5.66
2022-12-19T21:21:21.458Z,5.63
2022-12-19T21:22:21.397Z,5.56
2022-12-19T21:23:21.452Z,5.55
2022-12-19T21:24:21.379Z,5.56
2022-12-19T21:25:21.387Z,5.51
2022-12-19T21:26:21.371Z,5.49
2022-12-19T21:27:21.374Z,5.45
2022-12-19T21:28:21.347Z,5.42
2022-12-19T21:29:21.316Z,5.42
2022-12-19T21:30:21.345Z,5.41
2022-12-19T21:31:21.382Z,5.41
2022-12-19T21:32:21.284Z,5.42
2022-12-19T21:33:21.283Z,5.44
2022-12-19T21:34:21.301Z,5.44
2022-12-19T21:35:21.273Z,5.49
2022-12-19T21:36:21.260Z,5.66
2022-12-19T21:37:21.235Z,5.75
2022-12-19T21:38:21.233Z,5.81
2022-12-19T21:39:21.223Z,5.81
2022-12-19T21:40:21.220Z,5.80
2022-12-19T21:41:21.210Z,5.80
2022-12-19T21:42:21.179Z,5.81
2022-12-19T21:43:21.195Z,5.85
2022-12-19T21:44:21.183Z,5.85
2022-12-19T21:45:21.182Z,5.83
2022-12-19T21:46:21.212Z,5.85
2022-12-19T21:47:21.134Z,5.84
2022-12-19T21:48:21.115Z,5.81
2022-12-19T21:49:21.124Z,5.85
2022-12-19T21:50:21.124Z,5.90
2022-12-19T21:51:21.100Z,5.87
2022-12-19T21:52:21.080Z,5.92
2022-12-19T21:53:21.070Z,5.95
2022-12-19T21:54:21.138Z,5.98
2022-12-19T21:55:21.058Z,6.02
2022-12-19T21:56:21.051Z,5.99
2022-12-19T21:57:21.039Z,5.96
2022-12-19T21:58:21.037Z,5.88
2022-12-19T21:59:21.010Z,5.84
2022-12-19T22:00:21.000Z,5.78
2022-12-19T22:01:21.101Z,5.75
2022-12-19T22:02:21.204Z,5.75
2022-12-19T22:03:21.113Z,5.78
2022-12-19T22:04:21.261Z,5.83
2022-12-19T22:05:20.948Z,5.84
2022-12-19T22:06:27.388Z,5.81
2022-12-19T22:07:20.939Z,5.80
2022-12-19T22:08:20.922Z,5.78
2022-12-19T22:09:20.912Z,5.78
2022-12-19T22:10:20.903Z,5.84
2022-12-19T22:11:20.899Z,5.88
2022-12-19T22:12:20.875Z,5.87
2022-12-19T22:13:20.907Z,5.85
2022-12-19T22:14:20.847Z,5.88
2022-12-19T22:15:20.833Z,5.88
2022-12-19T22:16:20.916Z,5.84
2022-12-19T22:17:20.820Z,5.88
2022-12-19T22:18:20.815Z,5.90
2022-12-19T22:19:20.809Z,5.93
2022-12-19T22:20:20.794Z,5.95
2022-12-19T22:21:20.806Z,5.98
2022-12-19T22:22:20.813Z,6.03
2022-12-19T22:23:20.776Z,6.05
2022-12-19T22:24:20.751Z,6.06
2022-12-19T22:25:20.762Z,6.03
2022-12-19T22:26:20.764Z,6.05
2022-12-19T22:27:20.720Z,6.08
2022-12-19T22:28:20.721Z,6.05
2022-12-19T22:29:20.700Z,6.01
2022-12-19T22:30:20.723Z,6.01
2022-12-19T22:31:20.754Z,6.02
2022-12-19T22:32:20.673Z,6.02
2022-12-19T22:33:20.688Z,6.05
2022-12-19T22:34:20.658Z,6.03
2022-12-19T22:35:20.678Z,6.03
2022-12-19T22:36:25.941Z,6.01
2022-12-19T22:37:20.729Z,5.98
2022-12-19T22:38:20.617Z,5.95
2022-12-19T22:39:20.695Z,5.98
2022-12-19T22:40:20.601Z,6.05
2022-12-19T22:41:20.646Z,6.06
2022-12-19T22:42:20.582Z,6.08
2022-12-19T22:43:20.560Z,6.03
2022-12-19T22:44:20.581Z,6.01
2022-12-19T22:45:20.540Z,6.01
2022-12-19T22:46:20.639Z,6.02
2022-12-19T22:47:20.524Z,6.03
2022-12-19T22:48:20.510Z,6.13
2022-12-19T22:49:20.506Z,6.17
2022-12-19T22:50:20.489Z,6.25
2022-12-19T22:51:20.494Z,6.24
2022-12-19T22:52:20.483Z,6.27
2022-12-19T22:53:20.485Z,6.27
2022-12-19T22:54:20.452Z,6.21
2022-12-19T22:55:20.445Z,6.24
2022-12-19T22:56:20.483Z,6.24
2022-12-19T22:57:20.425Z,6.24
2022-12-19T22:58:20.414Z,6.17
2022-12-19T22:59:20.399Z,6.14
2022-12-19T23:00:20.390Z,6.08
2022-12-19T23:01:20.502Z,6.02
2022-12-19T23:02:20.525Z,5.96
2022-12-19T23:03:20.595Z,5.96
2022-12-19T23:04:20.513Z,5.95
2022-12-19T23:05:20.370Z,5.95
2022-12-19T23:06:20.356Z,5.96
2022-12-19T23:07:20.332Z,5.96
2022-12-19T23:08:20.312Z,5.95
2022-12-19T23:09:20.323Z,5.95
2022-12-19T23:10:20.294Z,5.95
2022-12-19T23:11:20.287Z,5.95
2022-12-19T23:12:20.267Z,5.98
2022-12-19T23:13:20.304Z,6.02
2022-12-19T23:14:20.283Z,6.02
2022-12-19T23:15:20.231Z,6.06
2022-12-19T23:16:20.297Z,6.05
2022-12-19T23:17:20.215Z,6.06
2022-12-19T23:18:20.202Z,6.13
2022-12-19T23:19:20.212Z,6.13
2022-12-19T23:20:20.188Z,6.14
2022-12-19T23:21:20.199Z,6.16
2022-12-19T23:22:20.160Z,6.17
2022-12-19T23:23:20.155Z,6.21
2022-12-19T23:24:20.149Z,6.27
2022-12-19T23:25:20.133Z,6.27
2022-12-19T23:26:20.122Z,6.30
2022-12-19T23:27:20.123Z,6.32
2022-12-19T23:28:20.098Z,6.35
2022-12-19T23:29:20.107Z,6.36
2022-12-19T23:30:20.084Z,6.39
2022-12-19T23:31:20.121Z,6.38
2022-12-19T23:32:20.156Z,6.38
2022-12-19T23:33:20.072Z,6.38
2022-12-19T23:34:20.097Z,6.36
2022-12-19T23:35:20.029Z,6.36
2022-12-19T23:36:38.023Z,6.32
2022-12-19T23:37:20.028Z,6.32
2022-12-19T23:38:19.998Z,6.36
2022-12-19T23:39:19.987Z,6.36
2022-12-19T23:40:19.998Z,6.35
2022-12-19T23:41:19.967Z,6.35
2022-12-19T23:42:19.981Z,6.36
2022-12-19T23:43:19.952Z,6.40
2022-12-19T23:44:19.937Z,6.42
2022-12-19T23:45:19.930Z,6.42
2022-12-19T23:46:19.990Z,6.42
2022-12-19T23:47:19.942Z,6.45
2022-12-19T23:48:19.906Z,6.46
2022-12-19T23:49:19.892Z,6.48
2022-12-19T23:50:19.877Z,6.51
2022-12-19T23:51:19.862Z,6.54
2022-12-19T23:52:19.926Z,6.58
2022-12-19T23:53:19.845Z,6.61
2022-12-19T23:54:19.842Z,6.65
2022-12-19T23:55:19.824Z,6.72
2022-12-19T23:56:19.819Z,6.73
2022-12-19T23:57:19.836Z,6.76
2022-12-19T23:58:24.357Z,6.78
2022-12-19T23:59:19.806Z,6.78
